createdAt,value
2023-09-29T00:01:34.912Z,9.10
2023-09-29T00:04:06.279Z,9.13
2023-09-29T00:06:33.919Z,8.82
2023-09-29T00:09:13.808Z,9.70
2023-09-29T00:14:07.262Z,9.82
2023-09-29T00:16:34.064Z,9.63
2023-09-29T00:19:00.772Z,9.70
2023-09-29T00:21:27.381Z,8.75
2023-09-29T00:23:54.005Z,9.73
2023-09-29T00:26:21.794Z,10.32
2023-09-29T00:28:50.057Z,10.07
2023-09-29T00:31:17.105Z,9.88
2023-09-29T00:33:43.913Z,10.05
2023-09-29T00:36:12.712Z,9.90
2023-09-29T00:38:39.969Z,9.73
2023-09-29T00:41:07.090Z,9.82
2023-09-29T00:43:36.574Z,9.48
2023-09-29T00:46:08.017Z,10.15
2023-09-29T00:48:36.661Z,10.23
2023-09-29T00:51:03.642Z,9.88
2023-09-29T00:53:31.194Z,10.00
2023-09-29T00:55:58.224Z,9.45
2023-09-29T00:58:25.367Z,9.32
2023-09-29T01:00:53.541Z,9.38
2023-09-29T01:03:20.712Z,9.25
2023-09-29T01:05:50.916Z,9.90
2023-09-29T01:08:23.944Z,10.02
2023-09-29T01:10:51.268Z,9.85
2023-09-29T01:13:17.990Z,9.98
2023-09-29T01:15:45.144Z,9.65
2023-09-29T01:18:12.321Z,10.82
2023-09-29T01:20:41.436Z,10.65
2023-09-29T01:23:08.885Z,11.10
2023-09-29T01:25:36.510Z,10.52
2023-09-29T01:28:06.832Z,10.70
2023-09-29T01:30:33.852Z,9.88
2023-09-29T01:33:01.733Z,11.25
2023-09-29T01:35:29.006Z,10.13
2023-09-29T01:37:57.334Z,10.52
2023-09-29T01:40:24.351Z,10.85
2023-09-29T01:42:52.257Z,10.50
2023-09-29T01:45:20.329Z,10.32
2023-09-29T01:47:48.449Z,9.95
2023-09-29T01:50:17.523Z,10.68
2023-09-29T01:52:45.970Z,10.25
2023-09-29T01:55:20.817Z,10.27
2023-09-29T01:57:49.012Z,11.40
2023-09-29T02:00:20.939Z,10.80
2023-09-29T02:02:49.155Z,11.23
2023-09-29T02:05:19.902Z,11.45
2023-09-29T02:07:47.912Z,10.73
2023-09-29T02:10:20.246Z,10.48
2023-09-29T02:12:55.740Z,11.07
2023-09-29T02:15:23.072Z,11.18
2023-09-29T02:17:50.470Z,10.45
2023-09-29T02:20:19.623Z,11.23
2023-09-29T02:22:47.075Z,11.50
2023-09-29T02:25:16.516Z,10.65
2023-09-29T02:27:43.927Z,11.15
2023-09-29T02:30:12.630Z,11.10
2023-09-29T02:32:42.870Z,11.48
2023-09-29T02:35:11.603Z,11.80
2023-09-29T02:37:39.329Z,10.90
2023-09-29T02:40:12.614Z,11.10
2023-09-29T02:42:39.999Z,10.98
2023-09-29T02:45:07.875Z,12.20
2023-09-29T02:47:35.834Z,11.00
2023-09-29T02:50:02.674Z,10.55
2023-09-29T02:52:29.897Z,11.10
2023-09-29T02:54:56.528Z,10.90
2023-09-29T02:57:24.420Z,11.48
2023-09-29T02:59:52.093Z,10.75
2023-09-29T03:02:18.910Z,11.20
2023-09-29T03:04:48.121Z,11.55
2023-09-29T03:07:16.059Z,11.43
2023-09-29T03:09:42.991Z,11.25
2023-09-29T03:12:10.005Z,10.50
2023-09-29T03:14:37.414Z,11.45
2023-09-29T03:17:04.951Z,11.60
2023-09-29T03:19:32.274Z,12.07
2023-09-29T03:21:59.948Z,11.52
2023-09-29T03:24:30.925Z,12.18
2023-09-29T03:26:57.968Z,11.90
2023-09-29T03:29:25.016Z,11.55
2023-09-29T03:31:54.621Z,11.90
2023-09-29T03:34:21.849Z,11.55
2023-09-29T03:36:51.342Z,12.57
2023-09-29T03:39:19.656Z,12.20
2023-09-29T03:41:47.055Z,12.32
2023-09-29T03:44:13.898Z,12.18
2023-09-29T03:46:40.992Z,11.68
2023-09-29T03:49:07.842Z,11.30
2023-09-29T03:51:35.030Z,11.98
2023-09-29T03:54:01.839Z,11.27
2023-09-29T03:56:28.654Z,12.00
2023-09-29T03:58:56.749Z,11.20
2023-09-29T04:01:23.955Z,11.65
2023-09-29T04:03:50.823Z,12.13
2023-09-29T04:06:17.767Z,11.38
2023-09-29T04:08:44.967Z,10.93
2023-09-29T04:11:12.016Z,11.50
2023-09-29T04:13:38.851Z,11.65
2023-09-29T04:16:08.799Z,11.35
2023-09-29T04:18:36.749Z,11.23
2023-09-29T04:21:03.990Z,12.02
2023-09-29T04:23:31.301Z,12.00
2023-09-29T04:25:58.141Z,12.00
2023-09-29T04:28:24.834Z,12.25
2023-09-29T04:30:51.714Z,11.90
2023-09-29T04:33:19.937Z,11.70
2023-09-29T04:35:46.801Z,12.00
2023-09-29T04:38:13.510Z,12.27
2023-09-29T04:40:40.175Z,12.57
2023-09-29T04:43:07.051Z,12.32
2023-09-29T04:45:35.368Z,12.32
2023-09-29T04:48:03.054Z,12.52
2023-09-29T04:50:30.817Z,12.18
2023-09-29T04:52:57.855Z,11.90
2023-09-29T04:55:24.604Z,11.77
2023-09-29T04:57:53.653Z,12.38
2023-09-29T05:00:20.792Z,11.23
2023-09-29T05:02:48.004Z,12.18
2023-09-29T05:05:15.172Z,12.77
2023-09-29T05:07:44.572Z,12.65
2023-09-29T05:10:14.907Z,12.88
2023-09-29T05:12:42.396Z,13.63
2023-09-29T05:15:09.702Z,13.45
2023-09-29T05:20:11.863Z,14.65
2023-09-29T05:22:38.520Z,15.25
2023-09-29T05:25:05.578Z,15.10
2023-09-29T05:27:33.349Z,14.27
2023-09-29T05:30:00.212Z,12.50
2023-09-29T05:32:27.217Z,12.52
2023-09-29T05:34:53.855Z,11.57
2023-09-29T05:37:20.580Z,11.93
2023-09-29T05:39:47.422Z,11.27
2023-09-29T05:42:14.259Z,10.45
2023-09-29T05:44:41.037Z,11.10
2023-09-29T05:47:07.688Z,11.40
2023-09-29T05:49:34.329Z,10.88
2023-09-29T05:52:00.910Z,11.40
2023-09-29T05:54:27.536Z,10.80
2023-09-29T05:56:54.228Z,10.45
2023-09-29T05:59:20.920Z,12.63
2023-09-29T06:01:47.739Z,11.98
2023-09-29T06:04:14.450Z,12.30
2023-09-29T06:06:41.258Z,11.88
2023-09-29T06:09:08.005Z,11.65
2023-09-29T06:11:34.727Z,11.65
2023-09-29T06:14:01.382Z,11.25
2023-09-29T06:16:28.030Z,12.27
2023-09-29T06:18:54.709Z,13.07
2023-09-29T06:21:21.338Z,12.38
2023-09-29T06:23:47.992Z,12.30
2023-09-29T06:26:14.622Z,13.32
2023-09-29T06:28:41.457Z,13.20
2023-09-29T06:31:08.224Z,13.68
2023-09-29T06:33:34.945Z,13.25
2023-09-29T06:36:02.300Z,12.40
2023-09-29T06:38:30.604Z,12.45
2023-09-29T06:40:59.713Z,11.35
2023-09-29T06:43:26.402Z,10.30
2023-09-29T06:46:01.219Z,10.05
2023-09-29T06:48:29.098Z,10.10
2023-09-29T06:51:00.584Z,9.70
2023-09-29T06:53:29.914Z,9.50
2023-09-29T06:55:57.490Z,9.38
2023-09-29T06:58:24.084Z,9.45
2023-09-29T07:00:52.930Z,9.13
2023-09-29T07:03:20.312Z,8.98
2023-09-29T07:05:47.753Z,10.68
2023-09-29T07:08:14.588Z,9.88
2023-09-29T07:10:41.593Z,10.75
2023-09-29T07:13:08.508Z,9.68
2023-09-29T07:15:35.175Z,9.73
2023-09-29T07:18:02.190Z,9.73
2023-09-29T07:20:28.909Z,9.93
2023-09-29T07:22:55.524Z,10.80
2023-09-29T07:25:23.636Z,10.18
2023-09-29T07:27:50.256Z,10.18
2023-09-29T07:30:16.974Z,10.75
2023-09-29T07:32:43.659Z,10.55
2023-09-29T07:35:10.544Z,8.73
2023-09-29T07:37:39.293Z,9.60
2023-09-29T07:40:09.920Z,9.32
2023-09-29T07:42:36.664Z,9.20
2023-09-29T07:45:04.531Z,8.60
2023-09-29T07:47:31.431Z,8.70
2023-09-29T07:49:58.133Z,8.52
2023-09-29T07:52:29.564Z,8.75
2023-09-29T07:54:57.186Z,9.10
2023-09-29T07:57:23.921Z,8.90
2023-09-29T07:59:50.666Z,8.35
2023-09-29T08:02:17.307Z,8.48
2023-09-29T08:04:43.947Z,8.50
2023-09-29T08:07:11.430Z,8.52
2023-09-29T08:09:38.261Z,8.50
2023-09-29T08:12:05.188Z,8.65
2023-09-29T08:14:32.723Z,8.10
2023-09-29T08:16:59.639Z,8.45
2023-09-29T08:19:26.397Z,7.63
2023-09-29T08:21:53.033Z,8.20
2023-09-29T08:24:19.668Z,7.72
2023-09-29T08:26:46.348Z,7.95
2023-09-29T08:29:17.055Z,7.43
2023-09-29T08:31:44.744Z,7.68
2023-09-29T08:34:11.504Z,7.03
2023-09-29T08:36:38.497Z,6.93
2023-09-29T08:39:05.224Z,6.60
2023-09-29T08:41:33.798Z,8.07
2023-09-29T08:44:07.722Z,7.30
2023-09-29T08:46:37.998Z,6.57
2023-09-29T08:49:06.320Z,7.10
2023-09-29T08:51:34.720Z,6.35
2023-09-29T08:54:04.191Z,6.82
2023-09-29T08:56:31.723Z,6.82
2023-09-29T08:59:01.011Z,6.80
2023-09-29T09:01:27.914Z,6.75
2023-09-29T09:03:54.892Z,6.03
2023-09-29T09:06:23.769Z,6.25
2023-09-29T09:08:52.986Z,5.97
2023-09-29T09:11:20.700Z,6.57
2023-09-29T09:14:00.396Z,6.35
2023-09-29T09:16:33.134Z,6.57
2023-09-29T09:19:14.037Z,6.15
2023-09-29T09:21:42.631Z,7.47
2023-09-29T09:24:23.263Z,5.93
2023-09-29T09:26:51.085Z,6.40
2023-09-29T09:29:18.545Z,5.97
2023-09-29T09:31:52.375Z,5.60
2023-09-29T09:34:19.102Z,5.90
2023-09-29T09:36:51.119Z,5.60
2023-09-29T09:39:19.677Z,5.00
2023-09-29T09:41:48.412Z,5.40
2023-09-29T09:44:15.044Z,4.70
2023-09-29T09:46:42.150Z,4.47
2023-09-29T09:49:15.232Z,4.75
2023-09-29T09:51:48.779Z,4.53
2023-09-29T09:54:21.005Z,4.68
2023-09-29T09:56:56.988Z,4.15
2023-09-29T09:59:24.512Z,4.50
2023-09-29T10:01:52.473Z,4.13
2023-09-29T10:04:20.317Z,4.50
2023-09-29T10:06:47.099Z,4.05
2023-09-29T10:09:14.569Z,4.55
2023-09-29T10:11:44.057Z,4.22
2023-09-29T10:14:11.990Z,4.13
2023-09-29T10:16:40.015Z,3.95
2023-09-29T10:19:07.288Z,4.03
2023-09-29T10:21:46.416Z,3.55
2023-09-29T10:24:27.468Z,4.00
2023-09-29T10:26:54.301Z,3.88
2023-09-29T10:29:26.105Z,4.05
2023-09-29T10:31:54.324Z,3.95
2023-09-29T10:34:25.793Z,4.05
2023-09-29T10:36:57.062Z,3.72
2023-09-29T10:39:27.870Z,4.07
2023-09-29T10:42:13.774Z,3.45
2023-09-29T10:44:47.787Z,4.00
2023-09-29T10:47:18.063Z,3.90
2023-09-29T10:49:48.236Z,3.53
2023-09-29T10:52:20.223Z,3.72
2023-09-29T10:54:46.917Z,4.05
2023-09-29T10:57:19.829Z,3.83
2023-09-29T10:59:50.106Z,3.38
2023-09-29T11:02:17.572Z,3.67
2023-09-29T11:04:48.174Z,3.70
2023-09-29T11:07:18.288Z,3.97
2023-09-29T11:09:44.944Z,3.80
2023-09-29T11:12:18.865Z,3.60
2023-09-29T11:14:45.715Z,3.50
2023-09-29T11:17:12.466Z,3.80
2023-09-29T11:19:39.079Z,3.83
2023-09-29T11:22:07.033Z,3.50
2023-09-29T11:24:43.635Z,4.25
2023-09-29T11:27:12.000Z,3.90
2023-09-29T11:29:39.556Z,3.90
2023-09-29T11:32:06.259Z,3.92
2023-09-29T11:34:33.192Z,3.63
2023-09-29T11:36:59.909Z,3.92
2023-09-29T11:39:26.585Z,3.92
2023-09-29T11:41:53.270Z,3.88
2023-09-29T11:44:20.148Z,3.83
2023-09-29T11:46:46.856Z,3.53
2023-09-29T11:49:13.579Z,3.65
2023-09-29T11:51:40.337Z,3.67
2023-09-29T11:54:07.465Z,3.60
2023-09-29T11:56:34.372Z,3.60
2023-09-29T11:59:01.044Z,3.58
2023-09-29T12:01:30.692Z,3.60
2023-09-29T12:03:59.490Z,3.42
2023-09-29T12:06:26.688Z,3.55
2023-09-29T12:08:53.383Z,3.28
2023-09-29T12:11:21.372Z,3.05
2023-09-29T12:13:49.279Z,3.53
2023-09-29T12:16:16.488Z,3.15
2023-09-29T12:18:43.478Z,3.17
2023-09-29T12:21:11.896Z,2.78
2023-09-29T12:23:39.790Z,3.10
2023-09-29T12:26:07.432Z,3.08
2023-09-29T12:28:36.461Z,3.00
2023-09-29T12:31:04.133Z,3.22
2023-09-29T12:33:31.251Z,3.47
2023-09-29T12:35:58.033Z,3.35
2023-09-29T12:38:24.693Z,3.28
2023-09-29T12:40:51.369Z,3.17
2023-09-29T12:43:17.994Z,3.22
2023-09-29T12:45:45.409Z,3.10
2023-09-29T12:48:12.259Z,3.15
2023-09-29T12:50:40.736Z,3.13
2023-09-29T12:53:07.897Z,3.08
2023-09-29T12:55:34.566Z,2.95
2023-09-29T12:58:05.802Z,3.22
2023-09-29T13:03:06.295Z,3.00
2023-09-29T13:05:34.133Z,2.97
2023-09-29T13:08:04.675Z,3.63
2023-09-29T13:10:32.414Z,3.05
2023-09-29T13:12:59.231Z,3.55
2023-09-29T13:15:26.687Z,2.92
2023-09-29T13:17:54.431Z,3.20
2023-09-29T13:20:22.053Z,2.88
2023-09-29T13:22:51.973Z,2.60
2023-09-29T13:25:19.364Z,2.78
2023-09-29T13:27:46.265Z,3.00
2023-09-29T13:30:14.984Z,2.90
2023-09-29T13:32:41.934Z,2.75
2023-09-29T13:35:09.542Z,3.10
2023-09-29T13:37:37.653Z,2.72
2023-09-29T13:40:07.269Z,2.70
2023-09-29T13:42:36.375Z,3.05
2023-09-29T13:45:06.833Z,2.80
2023-09-29T13:47:34.583Z,2.80
2023-09-29T13:50:02.054Z,2.80
2023-09-29T13:52:29.292Z,3.13
2023-09-29T13:54:56.126Z,3.35
2023-09-29T13:57:23.801Z,3.00
2023-09-29T13:59:50.974Z,3.30
2023-09-29T14:02:17.786Z,3.25
2023-09-29T14:04:46.026Z,3.20
2023-09-29T14:07:13.206Z,3.40
2023-09-29T14:09:40.958Z,3.60
2023-09-29T14:12:09.952Z,3.47
2023-09-29T14:14:37.362Z,3.58
2023-09-29T14:17:06.203Z,3.35
2023-09-29T14:19:33.604Z,3.58
2023-09-29T14:22:00.416Z,3.17
2023-09-29T14:24:27.063Z,3.22
2023-09-29T14:26:54.151Z,3.75
2023-09-29T14:29:21.290Z,3.53
2023-09-29T14:31:48.551Z,2.95
2023-09-29T14:34:16.933Z,3.65
2023-09-29T14:36:44.503Z,3.53
2023-09-29T14:39:12.020Z,3.50
2023-09-29T14:41:39.089Z,3.45
2023-09-29T14:44:06.853Z,3.33
2023-09-29T14:46:33.720Z,3.75
2023-09-29T14:49:01.685Z,3.97
2023-09-29T14:51:28.413Z,3.88
2023-09-29T14:53:55.641Z,4.05
2023-09-29T14:56:22.599Z,3.90
2023-09-29T14:58:49.274Z,3.70
2023-09-29T15:01:15.970Z,4.25
2023-09-29T15:03:42.847Z,3.60
2023-09-29T15:06:14.044Z,4.10
2023-09-29T15:11:08.991Z,4.30
2023-09-29T15:13:36.016Z,3.88
2023-09-29T15:16:02.775Z,3.95
2023-09-29T15:18:29.599Z,3.78
2023-09-29T15:20:56.344Z,4.32
2023-09-29T15:23:23.025Z,3.85
2023-09-29T15:25:53.235Z,4.00
2023-09-29T15:28:20.530Z,3.75
2023-09-29T15:30:48.506Z,4.13
2023-09-29T15:33:16.616Z,3.70
2023-09-29T15:35:57.038Z,3.80
2023-09-29T15:38:24.421Z,4.18
2023-09-29T15:40:54.934Z,4.25
2023-09-29T15:43:22.472Z,4.18
2023-09-29T15:45:50.326Z,4.10
2023-09-29T15:48:17.300Z,4.70
2023-09-29T15:50:44.645Z,4.45
2023-09-29T15:53:15.972Z,4.38
2023-09-29T15:55:45.991Z,4.60
2023-09-29T15:58:12.713Z,4.63
2023-09-29T16:00:39.539Z,4.53
2023-09-29T16:03:07.637Z,4.60
2023-09-29T16:05:35.409Z,4.88
2023-09-29T16:08:02.107Z,5.10
2023-09-29T16:10:29.732Z,4.82
2023-09-29T16:12:56.963Z,5.18
2023-09-29T16:15:23.711Z,4.80
2023-09-29T16:17:50.955Z,5.00
2023-09-29T16:20:17.942Z,5.22
2023-09-29T16:22:44.683Z,5.13
2023-09-29T16:25:12.569Z,5.05
2023-09-29T16:27:39.496Z,5.43
2023-09-29T16:30:06.966Z,5.38
2023-09-29T16:32:33.718Z,5.60
2023-09-29T16:35:01.503Z,5.75
2023-09-29T16:37:28.227Z,5.90
2023-09-29T16:39:55.474Z,5.95
2023-09-29T16:42:23.470Z,6.35
2023-09-29T16:44:52.171Z,6.43
2023-09-29T16:47:20.078Z,6.40
2023-09-29T16:49:48.847Z,6.60
2023-09-29T16:52:15.602Z,6.90
2023-09-29T16:54:44.302Z,7.57
2023-09-29T16:57:11.297Z,6.93
2023-09-29T16:59:38.000Z,6.60
2023-09-29T17:02:04.743Z,7.32
2023-09-29T17:04:31.530Z,6.53
2023-09-29T17:06:58.281Z,6.75
2023-09-29T17:09:24.954Z,7.80
2023-09-29T17:11:52.501Z,6.65
2023-09-29T17:14:19.274Z,6.55
2023-09-29T17:16:46.047Z,7.03
2023-09-29T17:19:12.713Z,7.13
2023-09-29T17:21:39.457Z,6.72
2023-09-29T17:24:07.551Z,6.90
2023-09-29T17:26:34.319Z,6.90
2023-09-29T17:29:00.941Z,6.93
2023-09-29T17:31:29.125Z,7.00
2023-09-29T17:33:56.580Z,7.20
2023-09-29T17:36:23.657Z,7.35
2023-09-29T17:38:53.690Z,7.68
2023-09-29T17:41:20.475Z,7.22
2023-09-29T17:43:47.110Z,7.40
2023-09-29T17:46:13.797Z,6.55
2023-09-29T17:48:44.086Z,7.00
2023-09-29T17:51:12.878Z,7.45
2023-09-29T17:53:40.414Z,7.72
2023-09-29T17:56:07.998Z,7.32
2023-09-29T17:58:35.143Z,6.90
2023-09-29T18:01:06.077Z,6.63
2023-09-29T18:03:33.553Z,7.07
2023-09-29T18:06:00.912Z,7.00
2023-09-29T18:08:27.555Z,6.47
2023-09-29T18:10:54.605Z,6.55
2023-09-29T18:13:23.626Z,6.88
2023-09-29T18:15:50.237Z,6.35
2023-09-29T18:18:17.122Z,6.95
2023-09-29T18:20:43.756Z,7.70
2023-09-29T18:23:10.485Z,6.88
2023-09-29T18:25:37.082Z,7.07
2023-09-29T18:28:05.957Z,7.10
2023-09-29T18:30:33.578Z,7.18
2023-09-29T18:33:00.840Z,7.60
2023-09-29T18:35:27.614Z,7.65
2023-09-29T18:37:55.243Z,6.90
2023-09-29T18:40:21.904Z,7.28
2023-09-29T18:42:49.539Z,7.63
2023-09-29T18:45:16.817Z,7.28
2023-09-29T18:47:43.865Z,7.50
2023-09-29T18:50:12.744Z,6.93
2023-09-29T18:52:40.700Z,7.20
2023-09-29T18:55:08.173Z,7.43
2023-09-29T18:57:35.060Z,7.50
2023-09-29T19:00:02.774Z,8.02
2023-09-29T19:02:29.870Z,7.50
2023-09-29T19:04:56.598Z,7.70
2023-09-29T19:07:23.248Z,7.82
2023-09-29T19:09:50.063Z,7.65
2023-09-29T19:12:16.869Z,8.18
2023-09-29T19:14:43.896Z,7.43
2023-09-29T19:17:10.670Z,7.70
2023-09-29T19:19:37.389Z,7.80
2023-09-29T19:22:04.108Z,7.47
2023-09-29T19:24:30.839Z,8.15
2023-09-29T19:26:57.600Z,8.00
2023-09-29T19:29:24.269Z,7.50
2023-09-29T19:31:51.056Z,8.15
2023-09-29T19:34:17.946Z,7.80
2023-09-29T19:36:44.664Z,8.10
2023-09-29T19:39:11.407Z,8.65
2023-09-29T19:41:38.209Z,7.72
2023-09-29T19:44:05.169Z,8.38
2023-09-29T19:46:36.255Z,7.70
2023-09-29T19:49:05.135Z,8.57
2023-09-29T19:51:32.078Z,8.82
2023-09-29T19:53:59.749Z,8.32
2023-09-29T19:56:34.218Z,8.07
2023-09-29T19:59:01.747Z,8.65
2023-09-29T20:01:28.983Z,8.50
2023-09-29T20:03:56.280Z,8.55
2023-09-29T20:06:24.323Z,8.05
2023-09-29T20:08:53.847Z,8.98
2023-09-29T20:11:21.872Z,9.10
2023-09-29T20:13:48.570Z,8.70
2023-09-29T20:16:19.003Z,8.45
2023-09-29T20:18:46.345Z,9.25
2023-09-29T20:21:13.418Z,9.32
2023-09-29T20:23:40.351Z,9.40
2023-09-29T20:26:07.050Z,9.88
2023-09-29T20:28:34.814Z,10.18
2023-09-29T20:31:04.303Z,9.35
2023-09-29T20:33:31.050Z,9.95
2023-09-29T20:35:58.827Z,9.70
2023-09-29T20:38:25.465Z,9.82
2023-09-29T20:40:52.381Z,10.00
2023-09-29T20:43:19.020Z,9.43
2023-09-29T20:45:47.063Z,9.10
2023-09-29T20:48:14.921Z,10.57
2023-09-29T20:50:42.586Z,12.02
2023-09-29T20:53:12.891Z,10.90
2023-09-29T20:55:40.065Z,10.43
2023-09-29T20:58:06.960Z,9.95
2023-09-29T21:00:34.172Z,10.40
2023-09-29T21:03:01.472Z,9.48
2023-09-29T21:05:28.760Z,9.80
2023-09-29T21:07:55.556Z,9.27
2023-09-29T21:10:22.315Z,8.77
2023-09-29T21:12:49.519Z,8.60
2023-09-29T21:15:16.661Z,9.05
2023-09-29T21:17:43.757Z,9.30
2023-09-29T21:20:12.355Z,10.10
2023-09-29T21:22:42.866Z,10.23
2023-09-29T21:25:11.828Z,9.70
2023-09-29T21:27:39.034Z,9.70
2023-09-29T21:30:09.370Z,9.93
2023-09-29T21:32:38.023Z,8.75
2023-09-29T21:35:05.965Z,9.38
2023-09-29T21:37:32.957Z,9.30
2023-09-29T21:39:59.689Z,8.50
2023-09-29T21:42:26.378Z,8.35
2023-09-29T21:44:53.008Z,8.27
2023-09-29T21:47:19.667Z,9.10
2023-09-29T21:49:46.584Z,8.70
2023-09-29T21:52:13.607Z,8.23
2023-09-29T21:54:40.468Z,8.25
2023-09-29T21:57:08.659Z,8.35
2023-09-29T21:59:35.611Z,8.00
2023-09-29T22:02:02.625Z,8.57
2023-09-29T22:04:30.723Z,8.52
2023-09-29T22:06:57.837Z,8.23
2023-09-29T22:09:24.695Z,8.30
2023-09-29T22:11:51.459Z,8.30
2023-09-29T22:14:19.115Z,8.05
2023-09-29T22:16:46.626Z,8.13
2023-09-29T22:19:14.157Z,8.38
2023-09-29T22:21:41.030Z,8.02
2023-09-29T22:24:07.893Z,8.63
2023-09-29T22:26:36.620Z,8.02
2023-09-29T22:29:04.400Z,7.95
2023-09-29T22:33:58.772Z,7.82
2023-09-29T22:36:25.830Z,8.45
2023-09-29T22:38:53.224Z,8.32
2023-09-29T22:41:21.082Z,8.43
2023-09-29T22:43:48.175Z,8.02
2023-09-29T22:46:14.853Z,8.45
2023-09-29T22:48:41.525Z,8.82
2023-09-29T22:51:08.341Z,8.82
2023-09-29T22:53:36.069Z,8.60
2023-09-29T22:56:11.220Z,8.20
2023-09-29T22:58:38.743Z,8.65
2023-09-29T23:01:05.710Z,8.30
2023-09-29T23:03:32.505Z,7.90
2023-09-29T23:06:02.673Z,8.10
2023-09-29T23:08:30.823Z,8.43
2023-09-29T23:10:57.454Z,8.77
2023-09-29T23:13:25.097Z,8.63
2023-09-29T23:15:52.034Z,9.02
2023-09-29T23:18:18.679Z,8.38
2023-09-29T23:20:45.289Z,8.70
2023-09-29T23:23:11.888Z,9.20
2023-09-29T23:25:39.162Z,8.70
2023-09-29T23:28:06.078Z,8.95
2023-09-29T23:30:36.673Z,8.95
2023-09-29T23:33:05.081Z,7.93
2023-09-29T23:35:32.209Z,8.85
2023-09-29T23:37:59.361Z,9.18
2023-09-29T23:40:26.001Z,8.75
2023-09-29T23:42:52.676Z,8.77
2023-09-29T23:45:19.304Z,8.80
2023-09-29T23:47:48.212Z,8.52
2023-09-29T23:50:15.210Z,8.30
2023-09-29T23:52:41.898Z,8.77
2023-09-29T23:55:09.898Z,8.93
2023-09-29T23:57:37.185Z,8.63
